Time;durP1;ratioP1;P1;durP2;ratioP2;P2;SDS_P1;SDS_P2;PMS_P1;PMS_P2;Temp;Humidity;BMP_temperature;BMP_pressure;BME280_temperature;BME280_humidity;BME280_pressure;Samples;Min_cycle;Max_cycle;Signal;HPM_P1;HPM_P2
2021/06/19 00:01:32;;;;;;;6.90;3.20;;;665.80;1408.00;;;;;;5114760;28;20016;-56
2021/06/19 00:03:58;;;;;;;10.50;3.55;;;665.70;1433.60;;;;;;5115200;28;20046;-55
2021/06/19 00:06:24;;;;;;;6.57;3.65;;;665.70;1433.60;;;;;;5130319;27;20492;-55
2021/06/19 00:08:50;;;;;;;8.00;3.50;;;665.70;1433.60;;;;;;5114069;28;20036;-55
2021/06/19 00:11:16;;;;;;;9.25;3.92;;;665.70;1408.00;;;;;;5114822;28;20064;-55
2021/06/19 00:13:42;;;;;;;7.88;3.45;;;665.70;1408.00;;;;;;5114851;28;20110;-55
2021/06/19 00:16:08;;;;;;;8.13;3.10;;;665.70;1408.00;;;;;;5114515;28;20082;-55
2021/06/19 00:18:34;;;;;;;10.32;3.90;;;665.70;1408.00;;;;;;5114481;28;20151;-55
2021/06/19 00:21:00;;;;;;;9.80;3.47;;;665.70;1408.00;;;;;;5114690;28;20016;-56
2021/06/19 00:23:26;;;;;;;8.98;3.47;;;665.70;1408.00;;;;;;5114337;28;20032;-56
2021/06/19 00:25:52;;;;;;;10.05;3.70;;;665.70;1408.00;;;;;;5114571;28;20031;-56
2021/06/19 00:28:18;;;;;;;4.30;2.92;;;665.70;1408.00;;;;;;5114194;28;20034;-55
2021/06/19 00:30:44;;;;;;;11.13;3.42;;;665.60;1408.00;;;;;;5114501;28;20032;-56
2021/06/19 00:33:10;;;;;;;9.10;3.83;;;665.60;1433.60;;;;;;5114509;28;20059;-56
2021/06/19 00:35:37;;;;;;;8.50;3.60;;;640.90;1408.00;;;;;;5114249;28;20127;-55
2021/06/19 00:38:03;;;;;;;5.97;3.55;;;665.60;1433.60;;;;;;5114483;28;20023;-55
2021/06/19 00:40:29;;;;;;;8.40;3.78;;;640.80;1408.00;;;;;;5114182;28;20495;-55
2021/06/19 00:43:00;;;;;;;8.60;3.50;;;640.80;1408.00;;;;;;5114217;28;20028;-56
2021/06/19 00:45:30;;;;;;;10.93;3.88;;;640.80;1408.00;;;;;;5114377;28;20038;-55
2021/06/19 00:47:56;;;;;;;5.72;3.42;;;640.70;1433.60;;;;;;5113921;28;20119;-55
2021/06/19 00:50:23;;;;;;;6.90;4.05;;;640.70;1433.60;;;;;;5114250;28;20114;-55
2021/06/19 00:52:49;;;;;;;6.03;3.60;;;640.70;1433.60;;;;;;5113897;28;20023;-56
2021/06/19 00:55:15;;;;;;;7.35;3.63;;;640.70;1433.60;;;;;;5113873;28;20020;-55
2021/06/19 00:57:42;;;;;;;9.75;3.85;;;640.70;1433.60;;;;;;5113969;28;20487;-55
2021/06/19 01:00:10;;;;;;;14.23;3.90;;;640.70;1433.60;;;;;;5114148;28;20050;-56
2021/06/19 01:02:37;;;;;;;16.52;4.65;;;640.70;1433.60;;;;;;5113905;28;20023;-56
2021/06/19 01:05:06;;;;;;;6.45;3.70;;;640.60;1433.60;;;;;;5113645;28;20062;-55
2021/06/19 01:07:32;;;;;;;5.78;3.75;;;640.60;1433.60;;;;;;5113874;28;20487;-55
2021/06/19 01:09:58;;;;;;;6.93;3.55;;;640.50;1433.60;;;;;;5113973;28;20032;-55
2021/06/19 01:12:25;;;;;;;6.78;3.80;;;640.50;1433.60;;;;;;5113823;28;20055;-55
2021/06/19 01:14:54;;;;;;;4.35;3.50;;;640.50;1433.60;;;;;;5113700;28;20068;-55
2021/06/19 01:17:21;;;;;;;6.32;3.55;;;640.50;1433.60;;;;;;5113789;28;20016;-55
2021/06/19 01:20:08;;;;;;;10.35;4.03;;;640.50;1433.60;;;;;;5113669;28;20028;-57
2021/06/19 01:22:37;;;;;;;6.25;4.30;;;640.50;1433.60;;;;;;5117871;28;20028;-55
2021/06/19 01:25:08;;;;;;;9.63;3.88;;;640.30;1433.60;;;;;;5117838;28;20024;-55
2021/06/19 01:27:34;;;;;;;7.15;4.10;;;640.30;1459.20;;;;;;5117852;28;20064;-55
2021/06/19 01:30:03;;;;;;;8.30;3.97;;;640.30;1459.20;;;;;;5117549;28;20108;-55
2021/06/19 01:32:34;;;;;;;8.35;3.78;;;640.20;1459.20;;;;;;5117712;28;20037;-55
2021/06/19 01:35:00;;;;;;;12.27;3.88;;;640.30;1459.20;;;;;;5117570;28;20038;-55
2021/06/19 01:37:27;;;;;;;6.50;3.97;;;640.20;1459.20;;;;;;5117879;28;20024;-55
2021/06/19 01:40:15;;;;;;;5.22;3.42;;;640.20;1459.20;;;;;;5117776;28;20055;-56
2021/06/19 01:42:44;;;;;;;6.70;3.90;;;640.20;1459.20;;;;;;5117492;28;20031;-56
2021/06/19 01:45:21;;;;;;;5.97;3.83;;;640.20;1459.20;;;;;;5117664;28;20023;-55
2021/06/19 01:47:48;;;;;;;11.77;3.97;;;640.20;1459.20;;;;;;5117467;28;20049;-56
2021/06/19 01:50:18;;;;;;;6.60;4.30;;;640.10;1459.20;;;;;;5117219;28;20032;-56
2021/06/19 01:52:44;;;;;;;7.25;3.88;;;640.10;1459.20;;;;;;5117220;28;20062;-56
2021/06/19 01:55:11;;;;;;;8.02;4.18;;;640.10;1459.20;;;;;;5117470;28;20027;-56
2021/06/19 01:57:38;;;;;;;8.25;4.50;;;640.10;1459.20;;;;;;5098877;28;20391;-55
2021/06/19 02:00:05;;;;;;;6.78;4.05;;;640.20;1459.20;;;;;;5117123;28;20491;-55
2021/06/19 02:02:32;;;;;;;7.95;4.20;;;640.10;1459.20;;;;;;5117412;28;20023;-56
2021/06/19 02:04:58;;;;;;;5.68;4.18;;;640.10;1459.20;;;;;;5116851;28;20044;-55
2021/06/19 02:07:24;;;;;;;9.23;4.03;;;640.10;1459.20;;;;;;5117370;28;20030;-55
2021/06/19 02:09:50;;;;;;;5.38;3.80;;;640.10;1459.20;;;;;;5116888;28;20035;-56
2021/06/19 02:12:17;;;;;;;6.65;3.85;;;640.10;1459.20;;;;;;5116940;28;20019;-56
2021/06/19 02:14:44;;;;;;;7.68;3.88;;;640.00;1484.80;;;;;;5116856;28;20024;-56
2021/06/19 02:17:10;;;;;;;7.45;4.18;;;640.00;1484.80;;;;;;5116824;28;20030;-56
2021/06/19 02:19:36;;;;;;;9.68;4.75;;;640.00;1484.80;;;;;;5117025;28;20023;-55
2021/06/19 02:22:02;;;;;;;4.70;3.97;;;615.30;1484.80;;;;;;5116759;28;20020;-55
2021/06/19 02:24:28;;;;;;;7.60;3.95;;;615.30;1484.80;;;;;;5116895;28;20027;-55
2021/06/19 02:27:14;;;;;;;11.32;5.05;;;615.30;1484.80;;;;;;5116713;28;20383;-55
2021/06/19 02:29:41;;;;;;;8.52;4.50;;;615.30;1484.80;;;;;;5116414;28;20035;-55
2021/06/19 02:32:09;;;;;;;17.08;4.20;;;615.30;1484.80;;;;;;5116486;28;20016;-55
2021/06/19 02:34:38;;;;;;;8.52;4.57;;;615.30;1484.80;;;;;;5098376;28;20077;-55
2021/06/19 02:37:06;;;;;;;6.40;4.60;;;615.20;1510.40;;;;;;5116448;28;20027;-55
2021/06/19 02:39:32;;;;;;;7.75;4.22;;;615.10;1510.40;;;;;;5116567;28;20027;-56
2021/06/19 02:41:57;;;;;;;8.48;4.25;;;615.20;1510.40;;;;;;5116585;28;20024;-55
2021/06/19 02:44:23;;;;;;;10.88;4.78;;;615.20;1484.80;;;;;;5116208;28;20373;-56
2021/06/19 02:46:49;;;;;;;7.35;4.40;;;615.10;1484.80;;;;;;5116149;28;20081;-55
2021/06/19 02:49:15;;;;;;;7.15;4.82;;;615.10;1484.80;;;;;;5116370;28;20040;-55
2021/06/19 02:51:41;;;;;;;12.38;4.88;;;615.10;1484.80;;;;;;5116148;28;20026;-55
2021/06/19 02:54:07;;;;;;;5.43;4.05;;;615.10;1510.40;;;;;;5116111;28;20487;-55
2021/06/19 02:56:33;;;;;;;12.00;4.70;;;615.10;1510.40;;;;;;5115994;28;20527;-55
2021/06/19 02:58:59;;;;;;;8.90;4.70;;;615.10;1510.40;;;;;;5115997;28;20099;-56
2021/06/19 03:01:25;;;;;;;8.52;4.50;;;615.00;1510.40;;;;;;5116010;28;20433;-55
2021/06/19 03:03:51;;;;;;;8.48;4.03;;;615.00;1510.40;;;;;;5097628;28;20023;-55
2021/06/19 03:06:17;;;;;;;10.00;4.70;;;614.90;1510.40;;;;;;5115616;28;20099;-55
2021/06/19 03:08:43;;;;;;;9.40;4.90;;;614.90;1510.40;;;;;;5115756;28;20031;-55
2021/06/19 03:11:09;;;;;;;10.07;4.57;;;614.90;1536.00;;;;;;5116228;28;20020;-55
2021/06/19 03:13:35;;;;;;;9.57;5.03;;;614.90;1536.00;;;;;;5115951;28;20084;-55
2021/06/19 03:16:01;;;;;;;6.70;4.75;;;614.80;1536.00;;;;;;5115940;28;20027;-58
2021/06/19 03:18:27;;;;;;;8.70;4.75;;;614.80;1536.00;;;;;;5115649;28;20480;-55
2021/06/19 03:20:53;;;;;;;7.90;5.63;;;614.80;1536.00;;;;;;5115568;28;20024;-55
2021/06/19 03:23:19;;;;;;;14.73;11.32;;;614.80;1536.00;;;;;;5115548;28;20076;-55
2021/06/19 03:25:45;;;;;;;10.98;9.57;;;614.80;1536.00;;;;;;5115406;28;20030;-55
2021/06/19 03:28:12;;;;;;;11.63;7.38;;;614.80;1536.00;;;;;;5115326;28;20106;-55
2021/06/19 03:30:41;;;;;;;11.52;4.82;;;614.80;1536.00;;;;;;5115662;28;20383;-56
2021/06/19 03:33:08;;;;;;;10.50;4.78;;;614.80;1536.00;;;;;;5115253;28;20544;-56
2021/06/19 03:35:35;;;;;;;9.23;5.10;;;614.80;1536.00;;;;;;5115239;28;20487;-55
2021/06/19 03:38:01;;;;;;;8.32;4.80;;;614.80;1536.00;;;;;;5115297;28;20073;-55
2021/06/19 03:40:28;;;;;;;9.23;5.47;;;614.80;1536.00;;;;;;5115439;28;20499;-56
2021/06/19 03:42:55;;;;;;;8.05;5.10;;;614.80;1536.00;;;;;;5114449;28;20035;-56
2021/06/19 03:45:24;;;;;;;9.15;5.05;;;614.80;1536.00;;;;;;5115042;28;20392;-55
2021/06/19 03:47:50;;;;;;;11.65;5.03;;;614.70;1536.00;;;;;;5114949;28;20027;-56
2021/06/19 03:50:21;;;;;;;11.07;4.72;;;614.70;1561.60;;;;;;5114864;28;20036;-55
2021/06/19 03:52:47;;;;;;;7.93;4.72;;;614.70;1561.60;;;;;;5115168;28;20365;-55
2021/06/19 03:55:14;;;;;;;8.32;5.03;;;614.60;1561.60;;;;;;5114912;28;20076;-55
2021/06/19 03:57:41;;;;;;;10.98;4.80;;;614.60;1561.60;;;;;;5114852;28;20472;-55
2021/06/19 04:00:13;;;;;;;9.93;4.93;;;614.70;1561.60;;;;;;5114931;28;20046;-55
2021/06/19 04:02:39;;;;;;;8.55;4.65;;;614.70;1561.60;;;;;;5114755;28;20028;-56
2021/06/19 04:05:06;;;;;;;10.38;4.45;;;614.60;1561.60;;;;;;5114499;28;20044;-55
2021/06/19 04:07:32;;;;;;;10.32;4.80;;;614.70;1561.60;;;;;;5114691;28;20061;-55
2021/06/19 04:09:58;;;;;;;12.05;5.30;;;614.70;1561.60;;;;;;5114483;28;20059;-55
2021/06/19 04:12:24;;;;;;;9.68;4.88;;;614.80;1561.60;;;;;;5114847;28;20035;-55
2021/06/19 04:14:51;;;;;;;12.18;5.15;;;614.80;1561.60;;;;;;5114543;28;20028;-55
2021/06/19 04:17:19;;;;;;;9.63;4.68;;;614.80;1561.60;;;;;;5114486;28;20026;-55
2021/06/19 04:19:45;;;;;;;8.25;4.72;;;614.90;1561.60;;;;;;5114735;28;20425;-56
2021/06/19 04:22:13;;;;;;;9.45;5.00;;;614.90;1561.60;;;;;;5114377;28;20058;-55
2021/06/19 04:24:40;;;;;;;9.68;5.07;;;614.90;1561.60;;;;;;5114665;28;20027;-55
2021/06/19 04:27:15;;;;;;;6.85;5.03;;;615.00;1561.60;;;;;;5114955;28;20102;-55
2021/06/19 04:29:41;;;;;;;12.88;5.70;;;614.90;1561.60;;;;;;5114187;28;20556;-55
2021/06/19 04:32:09;;;;;;;12.80;5.78;;;615.00;1561.60;;;;;;5114209;28;20063;-55
2021/06/19 04:34:37;;;;;;;14.38;5.88;;;615.00;1561.60;;;;;;5114182;28;20027;-55
2021/06/19 04:37:03;;;;;;;10.15;7.00;;;615.10;1561.60;;;;;;5114977;28;20047;-55
2021/06/19 04:39:30;;;;;;;15.48;6.70;;;615.10;1561.60;;;;;;5114066;28;20027;-55
2021/06/19 04:42:04;;;;;;;17.48;6.40;;;615.10;1561.60;;;;;;5114171;28;20047;-56
2021/06/19 04:47:14;;;;;;;12.13;5.28;;;615.10;1587.20;;;;;;5114438;28;20030;-55
2021/06/19 04:49:40;;;;;;;8.68;5.30;;;615.10;1561.60;;;;;;5114001;28;20031;-55
2021/06/19 04:52:06;;;;;;;9.55;4.93;;;615.20;1561.60;;;;;;5114326;28;20020;-55
2021/06/19 04:54:37;;;;;;;7.43;4.85;;;615.20;1587.20;;;;;;5114021;28;20028;-56
2021/06/19 04:57:05;;;;;;;11.52;5.35;;;615.30;1561.60;;;;;;5113895;28;20029;-55
2021/06/19 04:59:32;;;;;;;12.27;5.22;;;615.30;1536.00;;;;;;5114213;28;20051;-55
2021/06/19 05:01:58;;;;;;;10.85;4.60;;;640.00;1536.00;;;;;;5113787;28;20026;-56
2021/06/19 05:04:24;;;;;;;10.23;5.43;;;640.00;1536.00;;;;;;5113847;28;20457;-56
2021/06/19 05:06:49;;;;;;;13.63;5.35;;;640.00;1561.60;;;;;;5113536;28;20031;-56
2021/06/19 05:09:15;;;;;;;6.40;4.97;;;640.10;1536.00;;;;;;5113685;28;20453;-55
2021/06/19 05:11:41;;;;;;;7.45;4.82;;;640.10;1536.00;;;;;;5129977;28;20019;-55
2021/06/19 05:14:07;;;;;;;7.90;5.03;;;640.10;1536.00;;;;;;5114083;28;20027;-56
2021/06/19 05:16:33;;;;;;;10.18;5.78;;;640.20;1536.00;;;;;;5129536;28;20015;-73
2021/06/19 05:18:59;;;;;;;11.77;6.47;;;640.20;1536.00;;;;;;5113655;28;20483;-55
2021/06/19 05:21:25;;;;;;;7.18;4.95;;;640.20;1536.00;;;;;;5113967;28;20047;-57
2021/06/19 05:23:51;;;;;;;9.45;4.63;;;640.30;1536.00;;;;;;5113786;28;20354;-56
2021/06/19 05:26:17;;;;;;;8.88;4.55;;;640.20;1561.60;;;;;;5113598;28;20055;-56
2021/06/19 05:28:43;;;;;;;9.15;5.28;;;640.30;1536.00;;;;;;5113588;28;20472;-56
2021/06/19 05:31:08;;;;;;;8.95;4.47;;;640.40;1536.00;;;;;;5113679;28;20030;-56
2021/06/19 05:33:34;;;;;;;6.53;4.72;;;640.40;1561.60;;;;;;5113751;28;20023;-55
2021/06/19 05:36:00;;;;;;;6.93;3.97;;;640.50;1561.60;;;;;;5113376;28;20062;-56
2021/06/19 05:38:26;;;;;;;6.60;4.32;;;640.50;1536.00;;;;;;5113565;28;20155;-55
2021/06/19 05:40:52;;;;;;;9.60;4.35;;;640.60;1536.00;;;;;;5113744;28;20413;-55
2021/06/19 05:43:18;;;;;;;5.65;3.92;;;640.60;1536.00;;;;;;5113543;28;20048;-55
2021/06/19 05:45:44;;;;;;;10.80;4.50;;;640.60;1587.20;;;;;;5113634;28;20036;-55
2021/06/19 05:48:10;;;;;;;7.78;4.40;;;640.60;1587.20;;;;;;5113408;28;20020;-56
2021/06/19 05:50:36;;;;;;;7.28;4.50;;;640.60;1561.60;;;;;;5095206;28;20039;-56
2021/06/19 05:53:02;;;;;;;8.18;4.07;;;640.70;1561.60;;;;;;5113448;28;20103;-55
2021/06/19 05:55:28;;;;;;;7.68;4.18;;;640.70;1536.00;;;;;;5113381;28;20027;-56
2021/06/19 05:57:54;;;;;;;11.23;4.05;;;640.80;1561.60;;;;;;5113655;28;20024;-56
2021/06/19 06:00:20;;;;;;;8.55;4.05;;;640.80;1536.00;;;;;;5113635;28;20015;-56
2021/06/19 06:02:46;;;;;;;10.00;4.40;;;640.90;1561.60;;;;;;5113580;28;20030;-55
2021/06/19 06:05:13;;;;;;;9.85;4.28;;;665.60;1561.60;;;;;;5113322;28;20026;-56
2021/06/19 06:07:39;;;;;;;9.10;4.75;;;665.60;1561.60;;;;;;5115926;28;20031;-56
2021/06/19 06:10:06;;;;;;;7.90;4.28;;;665.60;1536.00;;;;;;5116819;28;20084;-58
2021/06/19 06:12:32;;;;;;;8.07;4.43;;;665.70;1561.60;;;;;;5117200;28;20440;-56
2021/06/19 06:14:59;;;;;;;7.28;4.50;;;665.70;1536.00;;;;;;5117184;28;20031;-55
2021/06/19 06:17:25;;;;;;;8.85;4.00;;;665.70;1536.00;;;;;;5117157;28;20026;-56
2021/06/19 06:19:52;;;;;;;9.68;4.85;;;665.90;1536.00;;;;;;5116725;28;20020;-56
2021/06/19 06:22:18;;;;;;;9.05;4.70;;;666.00;1561.60;;;;;;5116670;28;20047;-55
2021/06/19 06:24:44;;;;;;;9.55;4.45;;;666.00;1561.60;;;;;;5116412;28;20012;-65
2021/06/19 06:27:10;;;;;;;8.13;4.47;;;666.10;1561.60;;;;;;5116356;28;20028;-55
2021/06/19 06:29:35;;;;;;;8.63;4.50;;;666.10;1536.00;;;;;;5116234;28;20035;-56
2021/06/19 06:32:01;;;;;;;9.50;4.82;;;666.30;1561.60;;;;;;5116389;28;20026;-56
2021/06/19 06:34:27;;;;;;;10.55;4.75;;;666.40;1536.00;;;;;;5116641;28;20026;-57
2021/06/19 06:36:54;;;;;;;10.30;4.90;;;691.20;1536.00;;;;;;5116298;28;20468;-56
2021/06/19 06:39:20;;;;;;;14.77;4.90;;;691.30;1536.00;;;;;;5116122;28;20032;-57
2021/06/19 06:41:46;;;;;;;14.32;5.60;;;691.40;1510.40;;;;;;5116541;28;20383;-56
2021/06/19 06:44:12;;;;;;;20.17;5.53;;;691.50;1536.00;;;;;;5116477;28;20020;-56
2021/06/19 06:46:38;;;;;;;14.88;5.15;;;691.60;1510.40;;;;;;5116008;28;20487;-56
2021/06/19 06:49:04;;;;;;;9.68;4.78;;;691.80;1484.80;;;;;;5116033;28;20067;-59
2021/06/19 06:51:33;;;;;;;12.35;4.40;;;691.90;1459.20;;;;;;5116001;28;20073;-56
2021/06/19 06:53:58;;;;;;;11.35;4.70;;;692.00;1459.20;;;;;;5116187;28;20028;-61
2021/06/19 06:56:24;;;;;;;10.68;4.57;;;692.10;1433.60;;;;;;5115916;28;20495;-56
2021/06/19 06:58:50;;;;;;;5.95;4.18;;;716.90;1459.20;;;;;;5115726;28;20020;-56
2021/06/19 07:01:16;;;;;;;7.25;4.40;;;717.00;1484.80;;;;;;5115818;28;20084;-56
2021/06/19 07:03:42;;;;;;;7.07;4.05;;;717.00;1459.20;;;;;;5115740;28;20085;-56
2021/06/19 07:06:08;;;;;;;9.85;3.92;;;717.10;1459.20;;;;;;5115544;28;20052;-55
2021/06/19 07:08:34;;;;;;;12.65;3.92;;;717.20;1433.60;;;;;;5115572;28;20077;-56
2021/06/19 07:11:00;;;;;;;8.40;4.60;;;717.30;1433.60;;;;;;5115496;28;20046;-60
2021/06/19 07:13:26;;;;;;;11.68;4.18;;;717.40;1408.00;;;;;;5115475;28;20107;-56
2021/06/19 07:15:52;;;;;;;7.07;3.80;;;717.50;1408.00;;;;;;5115487;28;20102;-60
2021/06/19 07:18:18;;;;;;;9.85;4.03;;;717.50;1382.40;;;;;;5114347;28;20023;-70
2021/06/19 07:20:44;;;;;;;11.00;4.53;;;717.60;1356.80;;;;;;5115499;28;20023;-57
2021/06/19 07:23:10;;;;;;;7.93;3.78;;;717.60;1356.80;;;;;;5115381;28;20076;-60
2021/06/19 07:25:36;;;;;;;9.98;4.13;;;717.70;1356.80;;;;;;5115276;28;20028;-70
2021/06/19 07:28:01;;;;;;;8.68;3.65;;;742.40;1382.40;;;;;;5097199;28;20034;-56
2021/06/19 07:30:28;;;;;;;18.52;4.20;;;742.40;1382.40;;;;;;5114616;28;20043;-56
2021/06/19 07:32:55;;;;;;;15.07;4.47;;;742.50;1408.00;;;;;;5107702;28;20023;-56
2021/06/19 07:35:22;;;;;;;8.10;3.78;;;742.60;1382.40;;;;;;5113296;28;20031;-56
2021/06/19 07:37:49;;;;;;;7.75;4.38;;;742.60;1408.00;;;;;;5113475;28;20024;-68
2021/06/19 07:40:15;;;;;;;16.42;4.72;;;742.70;1382.40;;;;;;5113654;28;20023;-59
2021/06/19 07:42:42;;;;;;;11.90;3.97;;;742.70;1382.40;;;;;;5113223;28;20084;-56
2021/06/19 07:45:09;;;;;;;6.60;3.75;;;742.70;1382.40;;;;;;5113967;28;20476;-62
2021/06/19 07:47:36;;;;;;;7.15;4.20;;;742.80;1356.80;;;;;;5113348;28;20540;-56
2021/06/19 07:50:04;;;;;;;5.63;4.05;;;742.80;1356.80;;;;;;5113640;28;20142;-56
2021/06/19 07:52:29;;;;;;;7.25;3.70;;;742.80;1356.80;;;;;;5113689;28;20369;-56
2021/06/19 07:54:55;;;;;;;8.23;3.63;;;742.90;1356.80;;;;;;5113289;28;20031;-61
2021/06/19 07:57:21;;;;;;;12.48;4.72;;;742.90;1356.80;;;;;;5112971;28;20024;-72
2021/06/19 07:59:47;;;;;;;10.10;4.63;;;743.00;1331.20;;;;;;5112680;28;20032;-56
2021/06/19 08:02:13;;;;;;;7.32;3.72;;;743.10;1331.20;;;;;;5113058;28;20023;-56
2021/06/19 08:04:39;;;;;;;6.47;3.83;;;743.10;1331.20;;;;;;5113402;28;20031;-56
2021/06/19 08:07:05;;;;;;;6.63;3.83;;;743.10;1305.60;;;;;;5113022;28;20057;-56
2021/06/19 08:09:31;;;;;;;7.95;3.63;;;743.20;1305.60;;;;;;5113000;28;20387;-56
2021/06/19 08:11:58;;;;;;;7.32;3.70;;;743.20;1331.20;;;;;;5113021;28;20051;-57
2021/06/19 08:14:24;;;;;;;10.82;4.22;;;743.20;1305.60;;;;;;5113202;28;20028;-56
2021/06/19 08:16:52;;;;;;;6.32;3.78;;;743.30;1305.60;;;;;;5113086;28;20046;-58
2021/06/19 08:19:18;;;;;;;6.60;3.47;;;768.00;1280.00;;;;;;5112976;28;20023;-56
2021/06/19 08:21:44;;;;;;;5.65;3.80;;;768.00;1280.00;;;;;;5113074;28;20028;-57
2021/06/19 08:24:10;;;;;;;11.15;3.90;;;768.00;1280.00;;;;;;5112924;28;20034;-62
2021/06/19 08:26:37;;;;;;;4.60;3.28;;;768.00;1254.40;;;;;;5112630;28;20027;-56
2021/06/19 08:29:07;;;;;;;4.70;3.50;;;768.00;1228.80;;;;;;5113023;28;20043;-65
2021/06/19 08:31:37;;;;;;;8.95;3.78;;;768.10;1254.40;;;;;;5112764;28;20048;-57
2021/06/19 08:34:05;;;;;;;10.07;3.50;;;768.10;1228.80;;;;;;5112565;28;20024;-59
2021/06/19 08:36:31;;;;;;;5.00;3.50;;;768.10;1254.40;;;;;;5111175;28;20039;-56
2021/06/19 08:38:58;;;;;;;8.35;3.63;;;768.30;1228.80;;;;;;5111806;28;20027;-56
2021/06/19 08:41:24;;;;;;;5.88;3.55;;;768.20;1228.80;;;;;;5112294;28;20024;-57
2021/06/19 08:43:50;;;;;;;6.03;3.53;;;768.20;1254.40;;;;;;5094190;28;20019;-57
2021/06/19 08:46:23;;;;;;;5.70;3.17;;;768.20;1203.20;;;;;;5112663;28;20024;-59
2021/06/19 08:48:54;;;;;;;4.82;2.92;;;768.20;1203.20;;;;;;5112340;28;20032;-55
2021/06/19 08:51:20;;;;;;;7.90;3.20;;;768.20;1203.20;;;;;;5112543;28;20037;-57
2021/06/19 08:53:49;;;;;;;13.23;3.58;;;768.20;1228.80;;;;;;5112812;28;20148;-55
2021/06/19 08:56:17;;;;;;;7.68;3.97;;;768.20;1228.80;;;;;;5113136;28;20023;-55
2021/06/19 08:58:43;;;;;;;8.52;3.80;;;768.30;1203.20;;;;;;5112333;28;20015;-56
2021/06/19 09:01:10;;;;;;;12.93;4.18;;;768.20;1203.20;;;;;;5113963;28;20023;-55
2021/06/19 09:03:36;;;;;;;7.20;3.50;;;768.20;1177.60;;;;;;5113914;28;20030;-56
2021/06/19 09:06:25;;;;;;;12.77;3.60;;;768.20;1203.20;;;;;;5113473;28;20044;-55
2021/06/19 09:09:07;;;;;;;11.35;3.58;;;768.20;1177.60;;;;;;5113957;28;20028;-55
2021/06/19 09:11:40;;;;;;;12.87;3.33;;;768.40;1203.20;;;;;;5114008;28;20031;-55
2021/06/19 09:14:09;;;;;;;;;;;768.50;1152.00;;;;;;5113258;28;20095;-56
2021/06/19 09:16:37;;;;;;;9.77;3.70;;;768.50;1177.60;;;;;;5113842;28;19951;-56
2021/06/19 09:19:28;;;;;;;11.52;3.50;;;768.50;1177.60;;;;;;5113771;28;20080;-58
2021/06/19 09:22:33;;;;;;;5.53;3.03;;;768.60;1152.00;;;;;;5113864;28;20024;-56
2021/06/19 09:24:59;;;;;;;7.55;2.97;;;768.70;1100.80;;;;;;5031209;28;20568;-56
2021/06/19 09:27:46;;;;;;;5.28;3.33;;;768.70;1152.00;;;;;;5030940;28;20033;-56
2021/06/19 09:30:17;;;;;;;13.05;3.80;;;768.70;1126.40;;;;;;5031034;28;20041;-56
2021/06/19 09:32:47;;;;;;;6.82;3.45;;;768.70;1152.00;;;;;;5031371;28;20036;-56
2021/06/19 09:35:18;;;;;;;11.77;3.28;;;768.70;1100.80;;;;;;5031002;28;20036;-56
2021/06/19 09:37:47;;;;;;;8.85;3.28;;;768.70;1126.40;;;;;;5030906;28;20072;-59
2021/06/19 09:40:19;;;;;;;12.15;3.60;;;768.70;1126.40;;;;;;5031275;28;20431;-56
2021/06/19 09:42:45;;;;;;;6.32;3.30;;;768.70;1075.20;;;;;;5033819;28;20029;-57
2021/06/19 09:45:23;;;;;;;10.75;3.58;;;768.80;1126.40;;;;;;5034841;28;20036;-63
2021/06/19 09:47:50;;;;;;;7.93;3.28;;;768.80;1126.40;;;;;;5034660;28;20025;-56
2021/06/19 09:50:22;;;;;;;6.57;3.35;;;768.80;1075.20;;;;;;5034915;28;20506;-56
2021/06/19 09:52:48;;;;;;;4.88;2.63;;;768.80;1126.40;;;;;;5034642;28;20030;-57
2021/06/19 09:55:16;;;;;;;8.80;3.40;;;768.80;1075.20;;;;;;5060043;28;20035;-57
2021/06/19 09:57:43;;;;;;;8.85;3.15;;;768.80;1100.80;;;;;;5117224;28;20069;-64
2021/06/19 10:00:11;;;;;;;8.75;3.30;;;768.90;1100.80;;;;;;5116949;28;20128;-57
2021/06/19 10:02:39;;;;;;;9.10;3.30;;;768.90;1075.20;;;;;;5117049;28;20023;-62
2021/06/19 10:05:06;;;;;;;13.48;3.75;;;768.90;1126.40;;;;;;5090286;28;20024;-67
2021/06/19 10:07:35;;;;;;;8.15;3.45;;;793.60;1100.80;;;;;;5114419;28;20036;-59
2021/06/19 10:10:04;;;;;;;4.55;2.75;;;793.60;1126.40;;;;;;5113564;28;20507;-55
2021/06/19 10:12:32;;;;;;;7.80;3.35;;;793.60;1100.80;;;;;;5113978;28;20046;-57
2021/06/19 10:15:00;;;;;;;5.82;2.92;;;793.60;1100.80;;;;;;5114183;28;20039;-56
2021/06/19 10:17:31;;;;;;;8.10;3.00;;;793.70;1126.40;;;;;;5096239;28;20100;-56
2021/06/19 10:20:01;;;;;;;9.48;3.40;;;793.60;1100.80;;;;;;5114626;28;20031;-56
2021/06/19 10:22:28;;;;;;;6.90;3.10;;;793.70;1126.40;;;;;;5114682;28;20404;-56
2021/06/19 10:24:55;;;;;;;11.65;3.63;;;793.70;1100.80;;;;;;5113569;28;20372;-56
2021/06/19 10:27:22;;;;;;;9.57;3.50;;;793.70;1126.40;;;;;;5114985;28;20515;-61
2021/06/19 10:29:52;;;;;;;10.50;3.63;;;793.80;1075.20;;;;;;5115612;28;20039;-57
2021/06/19 10:32:47;;;;;;;7.30;3.38;;;793.80;1075.20;;;;;;5096944;28;20412;-56
2021/06/19 10:35:16;;;;;;;9.60;3.58;;;793.80;1075.20;;;;;;5116378;28;20080;-56
2021/06/19 10:37:43;;;;;;;4.68;3.35;;;793.80;1075.20;;;;;;5115930;28;20080;-59
2021/06/19 10:40:20;;;;;;;10.90;3.60;;;793.80;1075.20;;;;;;5116555;28;20030;-58
2021/06/19 10:42:47;;;;;;;10.27;2.90;;;793.80;1049.60;;;;;;5096422;28;20039;-59
2021/06/19 10:45:31;;;;;;;12.00;2.80;;;793.90;1075.20;;;;;;5114790;28;20016;-56
2021/06/19 10:48:26;;;;;;;8.93;3.30;;;794.10;1049.60;;;;;;5112905;28;20496;-57
2021/06/19 10:50:52;;;;;;;5.13;3.30;;;794.10;1075.20;;;;;;5012098;28;20041;-56
2021/06/19 10:53:20;;;;;;;4.40;3.45;;;794.10;1049.60;;;;;;5011967;28;20034;-56
2021/06/19 10:55:56;;;;;;;5.43;3.05;;;794.10;1049.60;;;;;;5011990;28;20050;-57
2021/06/19 10:58:33;;;;;;;6.38;2.95;;;794.10;1075.20;;;;;;5010881;28;20029;-65
2021/06/19 11:01:02;;;;;;;5.47;3.10;;;794.10;1024.00;;;;;;5011958;28;20125;-63
2021/06/19 11:03:49;;;;;;;6.93;3.20;;;794.10;1049.60;;;;;;5011902;28;20034;-56
2021/06/19 11:06:17;;;;;;;7.65;3.17;;;794.10;1049.60;;;;;;5011725;28;20050;-60
2021/06/19 11:09:01;;;;;;;6.90;2.72;;;794.10;1049.60;;;;;;5011799;28;20137;-59
2021/06/19 11:12:07;;;;;;;14.48;2.75;;;793.90;1075.20;;;;;;5011162;28;20113;-59
2021/06/19 11:14:41;;;;;;;6.78;3.17;;;793.80;1075.20;;;;;;4992216;28;20455;-57
2021/06/19 11:17:23;;;;;;;6.35;3.10;;;793.80;1075.20;;;;;;4992094;28;20396;-57
2021/06/19 11:19:54;;;;;;;8.07;3.40;;;793.80;1100.80;;;;;;4991974;28;20041;-60
2021/06/19 11:22:55;;;;;;;4.30;3.10;;;793.90;1100.80;;;;;;4992097;28;20022;-72
2021/06/19 11:25:36;;;;;;;10.70;3.17;;;794.10;1075.20;;;;;;4986742;28;20037;-57
2021/06/19 11:28:05;;;;;;;7.80;2.90;;;794.10;1049.60;;;;;;5065415;28;20039;-57
2021/06/19 11:30:34;;;;;;;8.02;3.22;;;794.10;1049.60;;;;;;5082200;28;20034;-57
2021/06/19 11:33:25;;;;;;;11.52;3.10;;;794.20;1049.60;;;;;;5081351;28;20039;-63
2021/06/19 11:36:05;;;;;;;9.70;3.17;;;794.30;998.40;;;;;;5082857;28;20024;-57
2021/06/19 11:38:57;;;;;;;5.43;2.90;;;794.30;1049.60;;;;;;5080012;28;20108;-57
2021/06/19 11:41:28;;;;;;;6.30;2.90;;;794.10;1049.60;;;;;;5082125;28;20152;-57
2021/06/19 11:43:54;;;;;;;5.28;3.00;;;794.10;1049.60;;;;;;5080352;28;20016;-57
2021/06/19 11:46:24;;;;;;;8.43;4.10;;;794.10;1049.60;;;;;;5091852;28;20035;-56
2021/06/19 11:48:56;;;;;;;6.38;3.25;;;794.10;1049.60;;;;;;5093120;28;20100;-57
2021/06/19 11:51:23;;;;;;;5.47;2.97;;;794.10;1075.20;;;;;;5093094;28;20513;-57
2021/06/19 11:53:50;;;;;;;5.70;3.10;;;794.10;1024.00;;;;;;5092908;28;20055;-62
2021/06/19 11:56:19;;;;;;;7.95;2.83;;;794.10;1024.00;;;;;;5092986;28;20466;-56
2021/06/19 11:58:54;;;;;;;4.47;2.78;;;794.10;1049.60;;;;;;5092950;28;20358;-56
2021/06/19 12:01:24;;;;;;;5.57;3.08;;;794.30;1024.00;;;;;;5091226;28;20027;-60
2021/06/19 12:03:50;;;;;;;6.55;3.00;;;794.30;1024.00;;;;;;5092266;28;20050;-56
2021/06/19 12:06:17;;;;;;;8.10;2.88;;;794.30;1049.60;;;;;;5103950;28;20123;-58
2021/06/19 12:08:45;;;;;;;6.45;3.25;;;794.20;1024.00;;;;;;5114030;28;20420;-65
2021/06/19 12:11:10;;;;;;;8.35;3.30;;;794.10;1075.20;;;;;;5114320;28;20404;-56
2021/06/19 12:13:40;;;;;;;7.00;3.17;;;794.10;1075.20;;;;;;5114492;28;20011;-56
2021/06/19 12:16:08;;;;;;;4.15;3.65;;;794.10;1049.60;;;;;;5114553;28;20413;-56
2021/06/19 12:18:35;;;;;;;7.65;3.63;;;793.90;1075.20;;;;;;5114513;28;20350;-56
2021/06/19 12:21:08;;;;;;;9.00;3.90;;;794.10;1049.60;;;;;;5114267;28;20024;-56
2021/06/19 12:23:41;;;;;;;11.95;3.63;;;794.10;1049.60;;;;;;5114387;28;20443;-61
2021/06/19 12:26:09;;;;;;;11.00;3.92;;;794.20;1049.60;;;;;;5114086;28;20508;-56